createdAt,value
2018-11-13T00:01:57.120Z,15.47
2018-11-13T00:04:24.495Z,15.52
2018-11-13T00:06:52.066Z,15.46
2018-11-13T00:09:19.501Z,15.41
2018-11-13T00:11:46.851Z,15.38
2018-11-13T00:14:14.161Z,15.46
2018-11-13T00:16:41.385Z,15.45
2018-11-13T00:19:09.655Z,15.44
2018-11-13T00:21:37.698Z,14.75
2018-11-13T00:24:05.075Z,13.60
2018-11-13T00:26:32.413Z,15.38
2018-11-13T00:28:59.662Z,15.33
2018-11-13T00:31:26.839Z,15.33
2018-11-13T00:33:53.987Z,15.39
2018-11-13T00:36:21.548Z,15.39
2018-11-13T00:38:48.957Z,15.42
2018-11-13T00:41:16.212Z,15.39
2018-11-13T00:43:43.433Z,15.36
2018-11-13T00:46:10.801Z,15.31
2018-11-13T00:48:38.018Z,15.28
2018-11-13T00:51:05.247Z,15.24
2018-11-13T00:53:32.574Z,15.27
2018-11-13T00:55:59.783Z,15.31
2018-11-13T00:58:27.025Z,15.34
2018-11-13T01:00:54.754Z,15.35
2018-11-13T01:03:21.530Z,15.29
2018-11-13T01:05:48.703Z,15.23
2018-11-13T01:08:16.161Z,15.27
2018-11-13T01:10:43.567Z,15.29
2018-11-13T01:13:11.006Z,15.25
2018-11-13T01:15:38.265Z,15.17
2018-11-13T01:18:05.732Z,15.15
2018-11-13T01:20:32.891Z,15.19
2018-11-13T01:23:00.178Z,15.29
2018-11-13T01:25:27.490Z,15.28
2018-11-13T01:27:54.729Z,15.29
2018-11-13T01:30:22.129Z,15.30
2018-11-13T01:32:49.439Z,15.27
2018-11-13T01:35:17.798Z,15.23
2018-11-13T01:37:45.211Z,15.17
2018-11-13T01:40:13.840Z,15.09
2018-11-13T01:42:42.390Z,15.16
2018-11-13T01:45:10.915Z,15.17
2018-11-13T01:47:38.216Z,15.19
2018-11-13T01:50:05.525Z,15.14
2018-11-13T01:52:33.303Z,15.13
2018-11-13T01:55:00.405Z,15.15
2018-11-13T01:57:27.852Z,15.18
2018-11-13T01:59:55.089Z,15.17
2018-11-13T02:02:22.349Z,15.11
2018-11-13T02:04:49.770Z,15.09
2018-11-13T02:07:17.129Z,15.06
2018-11-13T02:09:44.457Z,15.04
2018-11-13T02:12:11.654Z,15.02
2018-11-13T02:14:38.918Z,14.96
2018-11-13T02:17:06.447Z,14.95
2018-11-13T02:19:33.820Z,14.95
2018-11-13T02:22:01.188Z,14.95
2018-11-13T02:24:28.607Z,14.88
2018-11-13T02:26:55.988Z,14.77
2018-11-13T02:29:23.197Z,14.76
2018-11-13T02:31:50.579Z,14.72
2018-11-13T02:34:17.746Z,14.78
2018-11-13T02:36:45.084Z,14.81
2018-11-13T02:39:12.353Z,14.72
2018-11-13T02:41:40.058Z,14.71
2018-11-13T02:44:07.790Z,14.68
2018-11-13T02:46:35.015Z,14.69
2018-11-13T02:49:02.185Z,14.71
2018-11-13T02:51:29.555Z,14.71
2018-11-13T02:53:56.969Z,14.72
2018-11-13T02:56:24.211Z,14.69
2018-11-13T02:58:51.633Z,14.30
2018-11-13T03:01:19.038Z,14.50
2018-11-13T03:03:46.274Z,14.46
2018-11-13T03:06:13.751Z,14.50
2018-11-13T03:08:41.126Z,14.50
2018-11-13T03:11:08.446Z,14.51
2018-11-13T03:13:35.755Z,14.50
2018-11-13T03:16:03.232Z,14.49
2018-11-13T03:18:30.476Z,14.50
2018-11-13T03:20:58.760Z,14.54
2018-11-13T03:23:26.028Z,14.54
2018-11-13T03:25:53.216Z,14.55
2018-11-13T03:28:20.533Z,14.51
2018-11-13T03:30:47.802Z,14.53
2018-11-13T03:33:15.071Z,14.53
2018-11-13T03:35:42.533Z,14.54
2018-11-13T03:38:10.254Z,14.51
2018-11-13T03:40:37.475Z,14.44
2018-11-13T03:43:04.886Z,14.41
2018-11-13T03:45:32.270Z,14.43
2018-11-13T03:47:59.598Z,14.45
2018-11-13T03:50:26.863Z,14.42
2018-11-13T03:52:54.166Z,14.45
2018-11-13T03:55:21.514Z,14.44
2018-11-13T03:57:49.578Z,14.51
2018-11-13T04:00:18.190Z,14.44
2018-11-13T04:02:45.613Z,14.42
2018-11-13T04:05:14.086Z,14.45
2018-11-13T04:07:42.785Z,14.43
2018-11-13T04:10:11.467Z,14.37
2018-11-13T04:12:39.258Z,14.37
2018-11-13T04:15:07.642Z,14.39
2018-11-13T04:17:35.569Z,14.38
2018-11-13T04:20:02.861Z,14.40
2018-11-13T04:22:31.105Z,14.34
2018-11-13T04:24:58.744Z,14.40
2018-11-13T04:27:26.501Z,14.34
2018-11-13T04:29:53.757Z,14.31
2018-11-13T04:32:21.048Z,14.35
2018-11-13T04:34:48.442Z,14.35
2018-11-13T04:37:15.722Z,14.28
2018-11-13T04:39:43.079Z,14.34
2018-11-13T04:42:10.471Z,14.24
2018-11-13T04:44:37.735Z,14.25
2018-11-13T04:47:05.367Z,14.26
2018-11-13T04:49:32.958Z,14.28
2018-11-13T04:52:00.168Z,14.26
2018-11-13T04:54:27.508Z,14.17
2018-11-13T04:56:54.970Z,14.21
2018-11-13T04:59:22.253Z,14.16
2018-11-13T05:01:49.998Z,14.16
2018-11-13T05:04:17.246Z,14.22
2018-11-13T05:06:44.562Z,14.23
2018-11-13T05:09:11.857Z,14.09
2018-11-13T05:11:39.056Z,14.01
2018-11-13T05:14:06.498Z,13.98
2018-11-13T05:16:33.745Z,13.98
2018-11-13T05:19:00.911Z,14.06
2018-11-13T05:21:28.130Z,14.03
2018-11-13T05:23:55.373Z,14.05
2018-11-13T05:26:22.821Z,13.99
2018-11-13T05:28:50.289Z,13.89
2018-11-13T05:31:17.850Z,13.94
2018-11-13T05:33:45.138Z,13.98
2018-11-13T05:36:12.391Z,13.98
2018-11-13T05:38:39.609Z,13.99
2018-11-13T05:41:06.737Z,14.05
2018-11-13T05:43:33.933Z,14.05
2018-11-13T05:46:01.291Z,14.04
2018-11-13T05:48:28.514Z,14.08
2018-11-13T05:50:55.708Z,14.04
2018-11-13T05:53:22.969Z,13.96
2018-11-13T05:55:50.259Z,13.91
2018-11-13T05:58:17.581Z,13.92
2018-11-13T06:00:44.882Z,13.86
2018-11-13T06:03:12.256Z,13.80
2018-11-13T06:05:40.454Z,13.81
2018-11-13T06:08:07.864Z,13.74
2018-11-13T06:10:35.225Z,13.76
2018-11-13T06:13:02.418Z,13.82
2018-11-13T06:15:29.611Z,13.84
2018-11-13T06:17:57.161Z,13.81
2018-11-13T06:20:24.408Z,13.77
2018-11-13T06:22:51.622Z,13.70
2018-11-13T06:25:18.782Z,13.76
2018-11-13T06:27:47.114Z,13.80
2018-11-13T06:30:17.901Z,13.68
2018-11-13T06:32:45.817Z,13.53
2018-11-13T06:35:13.096Z,13.55
2018-11-13T06:37:40.418Z,13.59
2018-11-13T06:40:08.736Z,13.45
2018-11-13T06:42:36.192Z,13.43
2018-11-13T06:45:03.599Z,13.37
2018-11-13T06:47:30.966Z,13.26
2018-11-13T06:49:58.314Z,13.28
2018-11-13T06:52:26.149Z,13.34
2018-11-13T06:55:06.524Z,13.38
2018-11-13T06:57:34.067Z,13.33
2018-11-13T07:00:01.777Z,13.42
2018-11-13T07:02:28.986Z,13.44
2018-11-13T07:04:56.890Z,13.37
2018-11-13T07:07:24.202Z,13.33
2018-11-13T07:09:52.480Z,13.29
2018-11-13T07:12:19.768Z,13.23
2018-11-13T07:14:47.184Z,13.25
2018-11-13T07:17:14.531Z,13.31
2018-11-13T07:19:42.550Z,13.36
2018-11-13T07:22:09.885Z,13.43
2018-11-13T07:24:37.528Z,13.46
2018-11-13T07:27:05.108Z,13.51
2018-11-13T07:29:32.568Z,13.51
2018-11-13T07:32:00.049Z,13.48
2018-11-13T07:34:27.707Z,13.35
2018-11-13T07:36:55.383Z,13.34
2018-11-13T07:39:23.443Z,13.32
2018-11-13T07:41:50.674Z,13.26
2018-11-13T07:44:18.016Z,13.41
2018-11-13T07:46:45.570Z,13.41
2018-11-13T07:49:12.758Z,13.46
2018-11-13T07:51:40.096Z,13.48
2018-11-13T07:54:07.565Z,13.46
2018-11-13T07:56:35.179Z,13.45
2018-11-13T07:59:02.500Z,13.40
2018-11-13T08:01:30.747Z,13.43
2018-11-13T08:03:58.085Z,13.40
2018-11-13T08:06:25.458Z,13.36
2018-11-13T08:08:53.014Z,13.37
2018-11-13T08:11:20.981Z,13.36
2018-11-13T08:13:48.228Z,13.34
2018-11-13T08:16:15.694Z,13.31
2018-11-13T08:18:43.235Z,13.36
2018-11-13T08:21:11.807Z,13.28
2018-11-13T08:23:39.519Z,13.32
2018-11-13T08:26:07.389Z,13.37
2018-11-13T08:28:35.282Z,13.31
2018-11-13T08:31:03.505Z,13.26
2018-11-13T08:33:33.754Z,13.26
2018-11-13T08:36:01.361Z,13.28
2018-11-13T08:38:28.957Z,13.33
2018-11-13T08:40:56.346Z,13.39
2018-11-13T08:43:24.483Z,13.42
2018-11-13T08:45:51.717Z,13.35
2018-11-13T08:48:19.023Z,13.30
2018-11-13T08:50:46.377Z,13.38
2018-11-13T08:53:13.881Z,13.29
2018-11-13T08:55:41.218Z,13.26
2018-11-13T08:58:08.391Z,13.30
2018-11-13T09:00:39.981Z,13.31
2018-11-13T09:03:07.383Z,13.29
2018-11-13T09:05:34.652Z,13.29
2018-11-13T09:08:01.905Z,12.56
2018-11-13T09:10:29.787Z,13.32
2018-11-13T09:12:57.087Z,13.35
2018-11-13T09:15:24.375Z,13.40
2018-11-13T09:17:52.959Z,13.48
2018-11-13T09:20:20.474Z,13.43
2018-11-13T09:22:47.820Z,13.47
2018-11-13T09:25:20.049Z,13.46
2018-11-13T09:27:47.861Z,13.42
2018-11-13T09:30:17.517Z,13.45
2018-11-13T09:32:45.511Z,13.43
2018-11-13T09:35:13.969Z,13.46
2018-11-13T09:37:41.288Z,13.42
2018-11-13T09:40:12.655Z,13.42
2018-11-13T09:42:41.073Z,13.39
2018-11-13T09:45:09.234Z,13.34
2018-11-13T09:47:36.670Z,13.28
2018-11-13T09:50:05.588Z,13.28
2018-11-13T09:52:33.033Z,13.23
2018-11-13T09:55:00.561Z,13.26
2018-11-13T09:57:27.849Z,13.31
2018-11-13T09:59:55.247Z,13.36
2018-11-13T10:02:23.405Z,13.41
2018-11-13T10:04:50.799Z,13.46
2018-11-13T10:07:17.377Z,13.51
2018-11-13T10:09:44.805Z,13.53
2018-11-13T10:12:12.075Z,13.26
2018-11-13T10:14:40.123Z,13.47
2018-11-13T10:17:08.067Z,13.60
2018-11-13T10:19:35.409Z,13.66
2018-11-13T10:22:02.930Z,13.64
2018-11-13T10:24:30.507Z,13.64
2018-11-13T10:26:57.759Z,13.64
2018-11-13T10:29:25.130Z,13.60
2018-11-13T10:31:52.375Z,13.60
2018-11-13T10:34:19.652Z,13.59
2018-11-13T10:36:47.176Z,13.41
2018-11-13T10:39:14.417Z,13.43
2018-11-13T10:41:41.636Z,13.42
2018-11-13T10:44:09.030Z,13.34
2018-11-13T10:46:39.997Z,13.37
2018-11-13T10:49:07.728Z,13.45
2018-11-13T10:51:35.189Z,13.46
2018-11-13T10:54:02.612Z,13.54
2018-11-13T10:56:30.179Z,13.63
2018-11-13T10:58:58.547Z,13.68
2018-11-13T11:01:32.300Z,13.75
2018-11-13T11:05:05.796Z,13.82
2018-11-13T11:07:33.318Z,13.77
2018-11-13T11:10:01.329Z,13.89
2018-11-13T11:12:29.662Z,13.87
2018-11-13T11:14:57.214Z,13.92
2018-11-13T11:17:24.532Z,13.92
2018-11-13T11:19:52.360Z,13.78
2018-11-13T11:22:20.773Z,13.83
2018-11-13T11:24:48.504Z,13.76
2018-11-13T11:27:16.095Z,13.76
2018-11-13T11:29:43.402Z,13.81
2018-11-13T11:32:10.741Z,13.89
2018-11-13T11:34:38.050Z,13.91
2018-11-13T11:37:05.261Z,13.96
2018-11-13T11:39:32.514Z,14.03
2018-11-13T11:41:59.706Z,14.03
2018-11-13T11:44:27.207Z,14.08
2018-11-13T11:46:54.393Z,14.08
2018-11-13T11:49:21.825Z,14.22
2018-11-13T11:51:49.098Z,14.28
2018-11-13T11:54:16.361Z,14.34
2018-11-13T11:56:43.771Z,14.34
2018-11-13T11:59:11.148Z,14.36
2018-11-13T12:01:38.631Z,14.30
2018-11-13T12:04:05.842Z,14.35
2018-11-13T12:06:33.693Z,14.49
2018-11-13T12:09:01.742Z,14.55
2018-11-13T12:11:29.167Z,14.55
2018-11-13T12:13:56.534Z,14.38
2018-11-13T12:16:23.982Z,14.43
2018-11-13T12:18:51.502Z,14.61
2018-11-13T12:21:18.824Z,14.88
2018-11-13T12:23:46.595Z,15.02
2018-11-13T12:26:15.195Z,14.97
2018-11-13T12:28:42.616Z,15.15
2018-11-13T12:31:09.731Z,15.31
2018-11-13T12:33:37.011Z,15.50
2018-11-13T12:36:04.331Z,15.53
2018-11-13T12:38:31.580Z,15.54
2018-11-13T12:40:59.021Z,15.30
2018-11-13T12:43:26.252Z,15.23
2018-11-13T12:45:53.692Z,14.99
2018-11-13T12:48:21.358Z,14.93
2018-11-13T12:50:54.525Z,14.92
2018-11-13T12:53:22.213Z,14.76
2018-11-13T12:55:50.042Z,14.65
2018-11-13T12:58:17.638Z,14.58
2018-11-13T13:00:44.888Z,14.46
2018-11-13T13:03:12.461Z,14.41
2018-11-13T13:05:40.041Z,14.35
2018-11-13T13:08:07.494Z,14.27
2018-11-13T13:10:34.881Z,14.17
2018-11-13T13:13:02.557Z,14.17
2018-11-13T13:15:29.893Z,14.19
2018-11-13T13:17:57.337Z,14.14
2018-11-13T13:20:26.370Z,14.26
2018-11-13T13:22:53.676Z,14.40
2018-11-13T13:25:22.345Z,14.40
2018-11-13T13:27:49.939Z,14.30
2018-11-13T13:30:20.434Z,14.09
2018-11-13T13:32:48.242Z,14.07
2018-11-13T13:35:37.015Z,14.06
2018-11-13T13:38:05.142Z,14.26
2018-11-13T13:40:32.471Z,14.31
2018-11-13T13:42:59.704Z,14.14
2018-11-13T13:45:27.463Z,14.09
2018-11-13T13:47:55.119Z,14.05
2018-11-13T13:50:22.507Z,14.08
2018-11-13T13:52:50.148Z,14.05
2018-11-13T13:55:18.328Z,13.99
2018-11-13T13:57:45.641Z,14.01
2018-11-13T14:00:13.181Z,14.09
2018-11-13T14:02:41.255Z,14.02
2018-11-13T14:05:08.934Z,14.08
2018-11-13T14:07:36.181Z,14.16
2018-11-13T14:10:03.578Z,14.11
2018-11-13T14:12:30.777Z,14.07
2018-11-13T14:14:58.320Z,14.10
2018-11-13T14:17:26.158Z,14.06
2018-11-13T14:19:53.803Z,14.08
2018-11-13T14:22:21.628Z,13.97
2018-11-13T14:24:49.084Z,13.95
2018-11-13T14:27:16.386Z,13.95
2018-11-13T14:29:43.911Z,14.00
2018-11-13T14:32:11.221Z,13.95
2018-11-13T14:34:38.624Z,13.88
2018-11-13T14:37:05.981Z,13.90
2018-11-13T14:39:33.393Z,13.95
2018-11-13T14:42:01.082Z,13.93
2018-11-13T14:44:28.411Z,13.94
2018-11-13T14:46:55.762Z,13.86
2018-11-13T14:49:23.193Z,13.90
2018-11-13T14:51:50.769Z,13.86
2018-11-13T14:54:19.604Z,13.86
2018-11-13T14:56:47.677Z,13.91
2018-11-13T14:59:14.987Z,13.83
2018-11-13T15:01:42.452Z,13.79
2018-11-13T15:04:09.634Z,13.79
2018-11-13T15:06:36.889Z,13.82
2018-11-13T15:09:06.298Z,13.86
2018-11-13T15:11:33.498Z,13.58
2018-11-13T15:14:00.702Z,13.84
2018-11-13T15:16:28.002Z,13.84
2018-11-13T15:18:55.362Z,13.79
2018-11-13T15:21:22.567Z,13.69
2018-11-13T15:23:49.817Z,13.78
2018-11-13T15:26:17.340Z,13.76
2018-11-13T15:28:44.658Z,13.71
2018-11-13T15:31:12.018Z,13.69
2018-11-13T15:33:39.341Z,13.70
2018-11-13T15:36:06.608Z,13.64
2018-11-13T15:38:34.094Z,13.58
2018-11-13T15:41:01.376Z,13.56
2018-11-13T15:43:28.549Z,13.55
2018-11-13T15:45:55.961Z,13.48
2018-11-13T15:48:23.466Z,13.47
2018-11-13T15:50:50.902Z,13.41
2018-11-13T15:53:20.832Z,13.43
2018-11-13T15:55:48.378Z,13.41
2018-11-13T15:58:15.912Z,13.42
2018-11-13T16:00:43.217Z,13.40
2018-11-13T16:03:20.282Z,13.36
2018-11-13T16:05:50.356Z,13.29
2018-11-13T16:08:17.544Z,13.26
2018-11-13T16:10:45.021Z,13.20
2018-11-13T16:13:12.584Z,13.15
2018-11-13T16:15:40.334Z,13.03
2018-11-13T16:18:10.293Z,13.01
2018-11-13T16:20:38.788Z,12.97
2018-11-13T16:23:06.483Z,12.96
2018-11-13T16:25:33.805Z,12.95
2018-11-13T16:28:01.196Z,12.95
2018-11-13T16:30:30.932Z,12.90
2018-11-13T16:32:58.230Z,12.94
2018-11-13T16:35:26.349Z,12.98
2018-11-13T16:37:54.903Z,13.16
2018-11-13T16:40:24.647Z,13.13
2018-11-13T16:42:52.042Z,13.12
2018-11-13T16:45:20.711Z,13.34
2018-11-13T16:47:48.184Z,13.73
2018-11-13T16:50:19.580Z,14.18
2018-11-13T16:52:46.965Z,13.86
2018-11-13T16:55:20.059Z,13.68
2018-11-13T16:57:47.534Z,13.75
2018-11-13T17:00:14.971Z,13.92
2018-11-13T17:02:42.307Z,14.54
2018-11-13T17:05:11.857Z,14.49
2018-11-13T17:07:39.557Z,15.03
2018-11-13T17:10:09.601Z,15.15
2018-11-13T17:12:36.844Z,15.40
2018-11-13T17:15:04.859Z,15.42
2018-11-13T17:17:33.280Z,15.14
2018-11-13T17:20:00.706Z,15.36
2018-11-13T17:22:27.986Z,15.80
2018-11-13T17:24:56.242Z,15.97
2018-11-13T17:27:23.795Z,15.89
2018-11-13T17:29:51.066Z,15.32
2018-11-13T17:32:18.854Z,14.79
2018-11-13T17:34:46.340Z,14.49
2018-11-13T17:37:14.411Z,14.37
2018-11-13T17:39:41.899Z,14.62
2018-11-13T17:42:09.325Z,14.73
2018-11-13T17:44:36.797Z,14.58
2018-11-13T17:47:04.955Z,14.48
2018-11-13T17:49:32.560Z,14.61
2018-11-13T17:52:00.105Z,14.71
2018-11-13T17:54:27.495Z,14.72
2018-11-13T17:56:55.030Z,14.81
2018-11-13T17:59:22.513Z,14.90
2018-11-13T18:01:49.944Z,15.22
2018-11-13T18:04:17.596Z,14.74
2018-11-13T18:06:44.955Z,15.60
2018-11-13T18:09:17.577Z,15.71
2018-11-13T18:11:45.441Z,15.55
2018-11-13T18:14:13.032Z,15.55
2018-11-13T18:16:40.615Z,15.16
2018-11-13T18:19:08.111Z,14.96
2018-11-13T18:21:35.553Z,14.80
2018-11-13T18:24:02.843Z,15.03
2018-11-13T18:26:30.223Z,15.12
2018-11-13T18:28:57.533Z,15.17
2018-11-13T18:31:25.605Z,15.17
2018-11-13T18:33:52.954Z,15.11
2018-11-13T18:36:20.679Z,14.96
2018-11-13T18:38:48.079Z,15.05
2018-11-13T18:43:54.217Z,14.69
2018-11-13T18:46:23.069Z,13.91
2018-11-13T18:48:55.673Z,13.56
2018-11-13T18:51:23.531Z,13.20
2018-11-13T18:53:51.210Z,12.99
2018-11-13T18:56:18.857Z,12.84
2018-11-13T18:58:46.319Z,12.67
2018-11-13T19:01:13.546Z,12.53
2018-11-13T19:03:40.955Z,12.50
2018-11-13T19:06:09.004Z,12.38
2018-11-13T19:08:36.399Z,12.17
2018-11-13T19:11:04.703Z,12.00
2018-11-13T19:13:34.746Z,11.93
2018-11-13T19:16:05.567Z,11.86
2018-11-13T19:18:32.918Z,11.92
2018-11-13T19:21:00.577Z,11.93
2018-11-13T19:23:27.882Z,11.89
2018-11-13T19:25:55.592Z,11.91
2018-11-13T19:28:23.091Z,11.96
2018-11-13T19:30:52.600Z,11.96
2018-11-13T19:33:20.364Z,11.87
2018-11-13T19:35:49.399Z,11.76
2018-11-13T19:38:16.810Z,11.73
2018-11-13T19:40:45.962Z,11.69
2018-11-13T19:43:14.568Z,11.47
2018-11-13T19:45:42.737Z,11.19
2018-11-13T19:48:10.352Z,10.99
2018-11-13T19:50:38.013Z,10.86
2018-11-13T19:58:02.110Z,10.87
2018-11-13T20:00:30.854Z,10.83
2018-11-13T20:02:59.937Z,10.75
2018-11-13T20:05:28.314Z,10.80
2018-11-13T20:07:55.537Z,10.73
2018-11-13T20:10:24.366Z,10.68
2018-11-13T20:12:52.653Z,10.62
2018-11-13T20:15:20.908Z,10.57
2018-11-13T20:17:48.290Z,10.52
2018-11-13T20:20:24.475Z,10.52
2018-11-13T20:22:52.710Z,10.37
2018-11-13T20:25:24.296Z,10.29
2018-11-13T20:27:51.577Z,10.33
2018-11-13T20:30:20.251Z,10.25
2018-11-13T20:32:47.526Z,10.27
2018-11-13T20:35:14.778Z,10.25
2018-11-13T20:37:43.569Z,10.25
2018-11-13T20:40:26.947Z,10.20
2018-11-13T20:42:55.854Z,10.11
2018-11-13T20:45:23.043Z,10.04
2018-11-13T20:47:50.279Z,9.91
2018-11-13T20:50:18.763Z,9.89
2018-11-13T20:52:46.393Z,9.63
2018-11-13T20:55:13.788Z,9.88
2018-11-13T20:57:41.096Z,9.88
2018-11-13T21:00:12.373Z,9.89
2018-11-13T21:02:39.731Z,9.84
2018-11-13T21:05:07.467Z,9.68
2018-11-13T21:07:35.293Z,9.60
2018-11-13T21:10:02.520Z,9.62
2018-11-13T21:12:30.650Z,9.41
2018-11-13T21:14:58.758Z,9.58
2018-11-13T21:17:26.373Z,9.63
2018-11-13T21:19:53.613Z,9.55
2018-11-13T21:22:20.877Z,9.53
2018-11-13T21:24:48.229Z,9.54
2018-11-13T21:27:15.599Z,9.52
2018-11-13T21:29:42.819Z,9.46
2018-11-13T21:32:10.091Z,9.47
2018-11-13T21:34:44.126Z,9.44
2018-11-13T21:37:11.432Z,9.40
2018-11-13T21:39:38.651Z,9.42
2018-11-13T21:42:05.874Z,9.31
2018-11-13T21:44:33.214Z,9.32
2018-11-13T21:47:00.686Z,9.26
2018-11-13T21:49:27.973Z,9.28
2018-11-13T21:51:55.230Z,9.22
2018-11-13T21:54:22.586Z,9.18
2018-11-13T21:56:49.908Z,9.18
2018-11-13T21:59:17.622Z,8.92
2018-11-13T22:01:45.192Z,9.14
2018-11-13T22:04:12.439Z,9.08
2018-11-13T22:06:39.661Z,9.09
2018-11-13T22:09:08.763Z,9.08
2018-11-13T22:11:36.456Z,9.15
2018-11-13T22:14:04.013Z,9.09
2018-11-13T22:16:31.263Z,9.10
2018-11-13T22:18:58.485Z,8.98
2018-11-13T22:21:25.822Z,8.94
2018-11-13T22:23:53.154Z,8.74
2018-11-13T22:26:20.704Z,8.63
2018-11-13T22:28:48.052Z,8.19
2018-11-13T22:31:15.433Z,8.32
2018-11-13T22:33:42.875Z,8.37
2018-11-13T22:36:10.201Z,8.37
2018-11-13T22:38:37.536Z,8.49
2018-11-13T22:41:05.459Z,8.47
2018-11-13T22:43:32.704Z,8.36
2018-11-13T22:45:59.897Z,8.30
2018-11-13T22:48:27.164Z,8.05
2018-11-13T22:50:54.497Z,8.17
2018-11-13T22:53:23.016Z,8.21
2018-11-13T22:55:50.254Z,8.23
2018-11-13T22:58:17.500Z,8.20
2018-11-13T23:00:46.807Z,8.22
2018-11-13T23:03:14.899Z,8.26
2018-11-13T23:05:43.031Z,8.19
2018-11-13T23:08:17.730Z,8.17
2018-11-13T23:10:50.779Z,8.13
2018-11-13T23:13:17.934Z,8.10
2018-11-13T23:15:45.137Z,8.14
2018-11-13T23:18:12.382Z,8.15
2018-11-13T23:20:39.642Z,8.23
2018-11-13T23:23:07.056Z,8.12
2018-11-13T23:25:34.753Z,8.09
2018-11-13T23:28:02.294Z,8.06
2018-11-13T23:30:29.600Z,7.97
2018-11-13T23:32:58.394Z,7.87
2018-11-13T23:35:25.586Z,7.88
2018-11-13T23:37:54.383Z,7.92
2018-11-13T23:40:22.890Z,7.97
2018-11-13T23:42:50.973Z,7.97
2018-11-13T23:45:19.195Z,7.99
2018-11-13T23:47:46.939Z,8.03
2018-11-13T23:50:14.258Z,8.02
2018-11-13T23:52:41.954Z,7.94
2018-11-13T23:55:10.775Z,7.97
2018-11-13T23:57:38.171Z,7.83
